createdAt,value
2023-05-05T00:01:11.614Z,12.34
2023-05-05T00:03:44.628Z,12.36
2023-05-05T00:06:18.040Z,12.43
2023-05-05T00:08:51.017Z,12.42
2023-05-05T00:11:23.994Z,12.39
2023-05-05T00:13:58.306Z,12.38
2023-05-05T00:16:31.341Z,12.36
2023-05-05T00:19:04.401Z,12.28
2023-05-05T00:21:37.344Z,12.26
2023-05-05T00:24:10.743Z,12.28
2023-05-05T00:26:43.684Z,12.28
2023-05-05T00:29:18.030Z,12.26
2023-05-05T00:31:52.708Z,12.21
2023-05-05T00:34:25.694Z,12.17
2023-05-05T00:36:58.629Z,12.15
2023-05-05T00:39:33.230Z,12.11
2023-05-05T00:42:06.400Z,12.11
2023-05-05T00:44:42.906Z,12.09
2023-05-05T00:47:16.790Z,12.05
2023-05-05T00:49:49.740Z,12.08
2023-05-05T00:52:22.776Z,12.06
2023-05-05T00:54:56.137Z,12.01
2023-05-05T00:57:29.210Z,12.05
2023-05-05T01:00:05.970Z,12.06
2023-05-05T01:02:41.188Z,12.06
2023-05-05T01:05:16.004Z,12.01
2023-05-05T01:08:04.678Z,11.91
2023-05-05T01:10:44.285Z,11.98
2023-05-05T01:13:33.315Z,11.96
2023-05-05T01:16:16.142Z,12.02
2023-05-05T01:18:55.611Z,12.09
2023-05-05T01:21:34.837Z,12.10
2023-05-05T01:24:40.450Z,12.14
2023-05-05T01:27:35.204Z,12.11
2023-05-05T01:30:23.686Z,12.04
2023-05-05T01:33:03.892Z,11.98
2023-05-05T01:35:42.729Z,12.02
2023-05-05T01:38:18.689Z,12.06
2023-05-05T01:41:00.965Z,12.09
2023-05-05T01:43:36.899Z,12.12
2023-05-05T01:46:10.707Z,12.16
2023-05-05T01:48:46.954Z,12.17
2023-05-05T01:51:22.338Z,12.22
2023-05-05T01:54:00.222Z,12.26
2023-05-05T01:56:34.231Z,12.24
2023-05-05T01:59:08.002Z,12.26
2023-05-05T02:01:44.699Z,12.22
2023-05-05T02:04:22.824Z,12.26
2023-05-05T02:06:57.437Z,12.26
2023-05-05T02:09:30.884Z,12.22
2023-05-05T02:12:07.641Z,12.19
2023-05-05T02:14:41.870Z,12.08
2023-05-05T02:17:16.384Z,12.01
2023-05-05T02:19:53.381Z,12.01
2023-05-05T02:22:26.475Z,11.91
2023-05-05T02:24:59.544Z,11.88
2023-05-05T02:27:36.092Z,11.85
2023-05-05T02:30:12.669Z,11.83
2023-05-05T02:33:01.476Z,11.56
2023-05-05T02:35:39.496Z,11.48
2023-05-05T02:38:17.347Z,11.44
2023-05-05T02:40:52.326Z,11.53
2023-05-05T02:43:26.907Z,11.55
2023-05-05T02:45:59.887Z,11.58
2023-05-05T02:48:32.854Z,11.58
2023-05-05T02:51:07.744Z,11.59
2023-05-05T02:53:41.121Z,11.52
2023-05-05T02:56:26.772Z,11.58
2023-05-05T02:59:10.069Z,11.57
2023-05-05T03:02:00.655Z,11.54
2023-05-05T03:04:40.598Z,11.51
2023-05-05T03:07:23.160Z,11.52
2023-05-05T03:10:06.032Z,11.59
2023-05-05T03:12:46.677Z,11.60
2023-05-05T03:15:21.196Z,11.61
2023-05-05T03:17:55.293Z,11.63
2023-05-05T03:20:29.873Z,11.54
2023-05-05T03:23:04.197Z,11.52
2023-05-05T03:25:45.145Z,11.47
2023-05-05T03:28:19.154Z,11.46
2023-05-05T03:30:52.197Z,11.43
2023-05-05T03:33:25.166Z,11.43
2023-05-05T03:35:58.342Z,11.42
2023-05-05T03:38:32.747Z,11.38
2023-05-05T03:41:05.737Z,11.38
2023-05-05T03:43:39.359Z,11.30
2023-05-05T03:46:12.456Z,11.24
2023-05-05T03:48:45.478Z,11.21
2023-05-05T03:51:18.756Z,11.22
2023-05-05T03:53:53.042Z,11.22
2023-05-05T03:56:25.959Z,11.26
2023-05-05T03:58:58.894Z,11.25
2023-05-05T04:01:31.893Z,11.29
2023-05-05T04:04:05.183Z,11.37
2023-05-05T04:06:38.114Z,11.32
2023-05-05T04:09:13.753Z,11.28
2023-05-05T04:11:46.721Z,11.35
2023-05-05T04:14:19.650Z,11.37
2023-05-05T04:16:53.654Z,11.40
2023-05-05T04:19:26.576Z,11.36
2023-05-05T04:21:59.543Z,11.29
2023-05-05T04:24:33.868Z,11.35
2023-05-05T04:27:07.069Z,11.30
2023-05-05T04:29:40.387Z,11.28
2023-05-05T04:32:13.331Z,11.38
2023-05-05T04:34:46.295Z,11.46
2023-05-05T04:37:19.380Z,11.49
2023-05-05T04:39:53.800Z,11.56
2023-05-05T04:42:26.837Z,11.61
2023-05-05T04:44:59.779Z,11.65
2023-05-05T04:47:32.839Z,11.60
2023-05-05T04:50:07.344Z,11.52
2023-05-05T04:52:40.915Z,11.45
2023-05-05T04:55:15.368Z,11.53
2023-05-05T04:57:48.330Z,11.61
2023-05-05T05:00:21.659Z,11.70
2023-05-05T05:02:54.635Z,11.82
2023-05-05T05:05:27.645Z,11.80
2023-05-05T05:08:00.626Z,11.91
2023-05-05T05:10:34.942Z,12.02
2023-05-05T05:13:07.911Z,12.14
2023-05-05T05:15:41.060Z,12.37
2023-05-05T05:18:14.008Z,12.88
2023-05-05T05:20:46.940Z,13.33
2023-05-05T05:23:19.880Z,13.74
2023-05-05T05:25:54.148Z,14.02
2023-05-05T05:28:27.138Z,14.09
2023-05-05T05:31:00.178Z,14.22
2023-05-05T05:33:33.127Z,14.52
2023-05-05T05:36:07.006Z,15.00
2023-05-05T05:38:39.964Z,15.47
2023-05-05T05:41:14.338Z,15.98
2023-05-05T05:43:47.289Z,16.43
2023-05-05T05:46:20.385Z,16.81
2023-05-05T05:48:54.052Z,17.15
2023-05-05T05:51:27.847Z,17.28
2023-05-05T05:54:00.791Z,16.91
2023-05-05T05:56:35.304Z,16.42
2023-05-05T05:59:10.072Z,16.07
2023-05-05T06:01:43.043Z,16.03
2023-05-05T06:04:15.991Z,16.45
2023-05-05T06:06:48.925Z,16.72
2023-05-05T06:09:21.954Z,16.93
2023-05-05T06:11:56.253Z,17.53
2023-05-05T06:14:29.195Z,18.17
2023-05-05T06:17:02.134Z,18.59
2023-05-05T06:19:36.893Z,18.98
2023-05-05T06:22:10.142Z,19.19
2023-05-05T06:24:43.092Z,19.58
2023-05-05T06:27:17.377Z,20.03
2023-05-05T06:29:50.376Z,20.68
2023-05-05T06:32:23.365Z,21.09
2023-05-05T06:34:56.392Z,21.45
2023-05-05T06:37:29.349Z,21.84
2023-05-05T06:40:02.294Z,21.90
2023-05-05T06:42:36.613Z,22.19
2023-05-05T06:45:10.804Z,22.36
2023-05-05T06:47:44.244Z,22.19
2023-05-05T06:50:17.418Z,22.34
2023-05-05T06:52:50.387Z,22.47
2023-05-05T06:55:24.343Z,22.40
2023-05-05T06:57:58.654Z,22.83
2023-05-05T07:00:31.701Z,22.91
2023-05-05T07:03:05.174Z,23.37
2023-05-05T07:05:38.202Z,23.90
2023-05-05T07:08:11.332Z,24.12
2023-05-05T07:10:44.504Z,24.36
2023-05-05T07:13:18.837Z,24.37
2023-05-05T07:15:51.830Z,24.46
2023-05-05T07:18:24.742Z,24.51
2023-05-05T07:20:57.822Z,24.47
2023-05-05T07:23:30.842Z,24.68
2023-05-05T07:26:03.967Z,25.02
2023-05-05T07:28:38.337Z,25.49
2023-05-05T07:31:11.430Z,25.45
2023-05-05T07:33:44.402Z,24.90
2023-05-05T07:36:18.783Z,24.32
2023-05-05T07:38:51.869Z,24.18
2023-05-05T07:41:24.836Z,23.75
2023-05-05T07:43:59.867Z,23.44
2023-05-05T07:46:32.919Z,23.20
2023-05-05T07:49:06.338Z,22.98
2023-05-05T07:51:39.291Z,22.98
2023-05-05T07:54:12.853Z,22.86
2023-05-05T07:56:46.102Z,22.65
2023-05-05T07:59:20.390Z,22.63
2023-05-05T08:01:54.856Z,23.00
2023-05-05T08:04:28.062Z,23.19
2023-05-05T08:07:01.016Z,23.36
2023-05-05T08:09:33.986Z,23.69
2023-05-05T08:12:07.242Z,23.88
2023-05-05T08:14:42.391Z,23.95
2023-05-05T08:17:16.425Z,24.13
2023-05-05T08:19:52.957Z,24.35
2023-05-05T08:22:26.380Z,24.69
2023-05-05T08:24:59.309Z,24.82
2023-05-05T08:27:35.183Z,24.83
2023-05-05T08:30:11.775Z,24.91
2023-05-05T08:32:44.810Z,24.95
2023-05-05T08:35:17.839Z,24.83
2023-05-05T08:37:52.372Z,24.76
2023-05-05T08:40:33.805Z,24.73
2023-05-05T08:43:07.164Z,24.62
2023-05-05T08:45:42.820Z,24.45
2023-05-05T08:48:20.619Z,24.49
2023-05-05T08:51:00.836Z,24.69
2023-05-05T08:53:50.032Z,24.34
2023-05-05T08:56:23.305Z,24.30
2023-05-05T08:58:58.099Z,24.17
2023-05-05T09:01:34.213Z,24.11
2023-05-05T09:04:09.252Z,23.82
2023-05-05T09:06:42.276Z,23.72
2023-05-05T09:09:16.081Z,23.63
2023-05-05T09:11:49.199Z,23.27
2023-05-05T09:14:22.138Z,23.14
2023-05-05T09:16:56.465Z,23.13
2023-05-05T09:19:29.450Z,22.93
2023-05-05T09:22:02.427Z,22.86
2023-05-05T09:24:35.390Z,22.60
2023-05-05T09:27:23.149Z,22.42
2023-05-05T09:29:56.549Z,22.34
2023-05-05T09:32:30.953Z,22.35
2023-05-05T09:35:04.010Z,22.37
2023-05-05T09:37:37.538Z,22.01
2023-05-05T09:40:13.227Z,21.71
2023-05-05T09:42:47.278Z,21.57
2023-05-05T09:45:28.095Z,21.20
2023-05-05T09:48:02.454Z,20.90
2023-05-05T09:50:44.989Z,20.67
2023-05-05T09:53:18.104Z,20.38
2023-05-05T09:55:55.635Z,20.09
2023-05-05T09:58:30.616Z,19.93
2023-05-05T10:01:03.628Z,19.69
2023-05-05T10:03:52.478Z,19.45
2023-05-05T10:06:41.966Z,19.27
2023-05-05T10:09:15.235Z,19.12
2023-05-05T10:11:49.170Z,18.95
2023-05-05T10:14:22.220Z,18.78
2023-05-05T10:16:56.967Z,18.85
2023-05-05T10:19:35.982Z,18.67
2023-05-05T10:22:11.332Z,18.51
2023-05-05T10:24:52.232Z,18.61
2023-05-05T10:27:29.801Z,18.73
2023-05-05T10:30:06.466Z,18.86
2023-05-05T10:32:59.393Z,19.00
2023-05-05T10:35:43.528Z,19.15
2023-05-05T10:38:17.558Z,19.33
2023-05-05T10:40:51.332Z,19.42
2023-05-05T10:43:25.578Z,19.53
2023-05-05T10:45:59.194Z,19.66
2023-05-05T10:48:39.041Z,19.81
2023-05-05T10:51:39.519Z,20.05
2023-05-05T10:54:22.394Z,20.47
2023-05-05T10:56:55.995Z,20.60
2023-05-05T10:59:43.301Z,20.69
2023-05-05T11:02:27.806Z,20.74
2023-05-05T11:05:09.535Z,20.80
2023-05-05T11:07:44.851Z,20.84
2023-05-05T11:10:20.544Z,20.98
2023-05-05T11:13:20.660Z,21.12
2023-05-05T11:15:54.953Z,21.14
2023-05-05T11:18:35.769Z,21.42
2023-05-05T11:21:17.657Z,21.48
2023-05-05T11:23:53.369Z,21.73
2023-05-05T11:26:52.260Z,22.05
2023-05-05T11:29:25.679Z,22.16
2023-05-05T11:32:12.631Z,22.04
2023-05-05T11:34:54.409Z,22.13
2023-05-05T11:37:28.885Z,22.34
2023-05-05T11:40:16.539Z,22.27
2023-05-05T11:42:49.542Z,22.15
2023-05-05T11:45:24.786Z,22.21
2023-05-05T11:48:27.893Z,22.40
2023-05-05T11:51:05.339Z,22.31
2023-05-05T11:53:38.694Z,22.45
2023-05-05T11:56:18.819Z,22.49
2023-05-05T11:59:09.513Z,22.71
2023-05-05T12:01:42.813Z,23.07
2023-05-05T12:04:17.024Z,22.79
2023-05-05T12:06:50.201Z,22.81
2023-05-05T12:09:24.264Z,23.01
2023-05-05T12:12:00.494Z,23.07
2023-05-05T12:14:34.384Z,23.18
2023-05-05T12:17:09.330Z,23.28
2023-05-05T12:19:53.924Z,23.45
2023-05-05T12:22:27.966Z,23.37
2023-05-05T12:25:04.622Z,23.42
2023-05-05T12:27:39.172Z,23.51
2023-05-05T12:30:15.527Z,23.58
2023-05-05T12:32:48.559Z,23.66
2023-05-05T12:35:22.517Z,23.50
2023-05-05T12:37:55.778Z,23.53
2023-05-05T12:40:48.732Z,23.61
2023-05-05T12:43:28.875Z,23.63
2023-05-05T12:46:07.324Z,23.76
2023-05-05T12:48:44.458Z,23.78
2023-05-05T12:51:23.126Z,23.72
2023-05-05T12:54:07.182Z,23.67
2023-05-05T12:56:42.006Z,23.93
2023-05-05T12:59:31.002Z,23.97
2023-05-05T13:02:04.517Z,23.90
2023-05-05T13:04:50.373Z,23.82
2023-05-05T13:07:23.572Z,23.81
2023-05-05T13:10:09.062Z,23.94
2023-05-05T13:12:42.202Z,23.98
2023-05-05T13:15:16.734Z,23.82
2023-05-05T13:17:49.747Z,23.83
2023-05-05T13:20:22.825Z,23.90
2023-05-05T13:22:55.772Z,23.90
2023-05-05T13:25:28.718Z,23.80
2023-05-05T13:28:01.739Z,23.79
2023-05-05T13:30:36.002Z,23.85
2023-05-05T13:33:09.029Z,23.89
2023-05-05T13:35:41.990Z,23.69
2023-05-05T13:38:14.957Z,23.85
2023-05-05T13:40:47.889Z,23.87
2023-05-05T13:43:21.103Z,24.13
2023-05-05T13:46:05.619Z,24.07
2023-05-05T13:48:45.863Z,23.97
2023-05-05T13:51:18.789Z,23.98
2023-05-05T13:53:52.681Z,24.03
2023-05-05T13:56:27.619Z,24.09
2023-05-05T13:59:00.885Z,24.23
2023-05-05T14:01:35.298Z,24.22
2023-05-05T14:04:08.749Z,24.14
2023-05-05T14:06:41.807Z,24.23
2023-05-05T14:09:14.807Z,24.36
2023-05-05T14:11:47.806Z,24.21
2023-05-05T14:14:20.844Z,23.93
2023-05-05T14:16:55.299Z,23.86
2023-05-05T14:19:28.481Z,23.82
2023-05-05T14:22:01.429Z,23.67
2023-05-05T14:24:34.449Z,23.74
2023-05-05T14:27:07.430Z,23.70
2023-05-05T14:29:40.501Z,23.57
2023-05-05T14:32:14.909Z,23.48
2023-05-05T14:34:50.333Z,23.43
2023-05-05T14:37:23.618Z,23.33
2023-05-05T14:39:56.565Z,23.31
2023-05-05T14:42:29.500Z,23.29
2023-05-05T14:45:03.626Z,23.29
2023-05-05T14:47:37.963Z,23.38
2023-05-05T14:50:11.860Z,23.52
2023-05-05T14:52:44.795Z,23.32
2023-05-05T14:55:17.953Z,23.26
2023-05-05T14:57:51.429Z,23.26
2023-05-05T15:00:26.460Z,23.20
2023-05-05T15:03:00.879Z,23.18
2023-05-05T15:05:33.873Z,23.21
2023-05-05T15:08:07.806Z,23.25
2023-05-05T15:10:40.998Z,23.29
2023-05-05T15:13:14.586Z,23.26
2023-05-05T15:15:48.416Z,23.25
2023-05-05T15:18:22.750Z,23.27
2023-05-05T15:20:55.683Z,23.22
2023-05-05T15:23:28.620Z,23.20
2023-05-05T15:26:01.769Z,23.16
2023-05-05T15:28:34.782Z,23.15
2023-05-05T15:31:07.845Z,23.10
2023-05-05T15:33:44.570Z,23.01
2023-05-05T15:36:22.358Z,22.97
2023-05-05T15:38:56.677Z,22.93
2023-05-05T15:41:30.404Z,22.76
2023-05-05T15:44:04.821Z,22.70
2023-05-05T15:46:37.937Z,22.60
2023-05-05T15:49:12.330Z,22.54
2023-05-05T15:51:45.415Z,22.51
2023-05-05T15:54:18.410Z,22.48
2023-05-05T15:56:51.436Z,22.46
2023-05-05T15:59:24.406Z,22.45
2023-05-05T16:01:57.391Z,22.29
2023-05-05T16:04:32.408Z,22.33
2023-05-05T16:07:05.524Z,22.26
2023-05-05T16:09:38.526Z,22.22
2023-05-05T16:12:11.698Z,22.12
2023-05-05T16:14:44.590Z,22.03
2023-05-05T16:17:17.542Z,21.95
2023-05-05T16:19:51.886Z,21.84
2023-05-05T16:22:24.828Z,21.57
2023-05-05T16:24:57.754Z,21.28
2023-05-05T16:27:30.790Z,21.01
2023-05-05T16:30:03.844Z,20.77
2023-05-05T16:32:36.945Z,20.55
2023-05-05T16:35:12.096Z,20.31
2023-05-05T16:37:45.077Z,20.07
2023-05-05T16:40:18.122Z,19.83
2023-05-05T16:42:51.117Z,19.49
2023-05-05T16:45:24.338Z,19.24
2023-05-05T16:47:57.452Z,19.08
2023-05-05T16:50:31.787Z,18.91
2023-05-05T16:53:04.921Z,18.81
2023-05-05T16:55:38.302Z,18.61
2023-05-05T16:58:11.372Z,18.40
2023-05-05T17:00:46.657Z,18.27
2023-05-05T17:03:20.565Z,18.12
2023-05-05T17:05:55.049Z,17.93
2023-05-05T17:08:28.049Z,17.80
2023-05-05T17:11:01.137Z,17.60
2023-05-05T17:13:34.094Z,17.35
2023-05-05T17:16:07.406Z,17.13
2023-05-05T17:18:40.404Z,16.92
2023-05-05T17:21:14.862Z,16.82
2023-05-05T17:23:47.825Z,16.79
2023-05-05T17:26:20.775Z,16.76
2023-05-05T17:28:53.745Z,16.73
2023-05-05T17:31:26.701Z,16.72
2023-05-05T17:33:59.688Z,16.69
2023-05-05T17:36:34.236Z,16.62
2023-05-05T17:39:07.479Z,16.50
2023-05-05T17:41:41.971Z,16.43
2023-05-05T17:44:14.984Z,16.34
2023-05-05T17:46:47.941Z,16.28
2023-05-05T17:49:21.449Z,16.28
2023-05-05T17:51:55.735Z,16.30
2023-05-05T17:54:28.729Z,16.34
2023-05-05T17:57:02.363Z,16.38
2023-05-05T17:59:35.341Z,16.44
2023-05-05T18:02:09.133Z,16.38
2023-05-05T18:04:42.428Z,16.35
2023-05-05T18:07:16.734Z,16.35
2023-05-05T18:09:49.716Z,16.41
2023-05-05T18:12:23.040Z,16.42
2023-05-05T18:14:56.022Z,16.42
2023-05-05T18:17:29.028Z,16.41
2023-05-05T18:20:02.097Z,16.33
2023-05-05T18:22:36.467Z,16.35
2023-05-05T18:25:10.600Z,16.29
2023-05-05T18:27:43.905Z,16.28
2023-05-05T18:30:17.597Z,16.14
2023-05-05T18:32:50.614Z,16.10
2023-05-05T18:35:23.608Z,16.09
2023-05-05T18:37:57.989Z,16.08
2023-05-05T18:40:31.572Z,16.09
2023-05-05T18:43:04.658Z,16.04
2023-05-05T18:45:37.720Z,15.99
2023-05-05T18:48:11.658Z,15.97
2023-05-05T18:50:45.754Z,15.94
2023-05-05T18:53:20.153Z,15.87
2023-05-05T18:55:53.151Z,15.80
2023-05-05T18:58:26.475Z,15.76
2023-05-05T19:00:59.600Z,15.82
2023-05-05T19:03:33.657Z,15.90
2023-05-05T19:06:07.442Z,15.76
2023-05-05T19:08:41.889Z,15.69
2023-05-05T19:11:15.507Z,15.64
2023-05-05T19:13:48.488Z,15.60
2023-05-05T19:16:21.535Z,15.62
2023-05-05T19:18:58.593Z,15.67
2023-05-05T19:21:31.588Z,15.61
2023-05-05T19:24:07.369Z,15.67
2023-05-05T19:26:40.507Z,15.65
2023-05-05T19:29:13.616Z,15.58
2023-05-05T19:31:46.578Z,15.58
2023-05-05T19:34:19.594Z,15.52
2023-05-05T19:36:52.556Z,15.51
2023-05-05T19:39:26.866Z,15.40
2023-05-05T19:41:59.858Z,15.34
2023-05-05T19:44:32.809Z,15.32
2023-05-05T19:47:06.066Z,15.27
2023-05-05T19:49:39.030Z,15.26
2023-05-05T19:52:12.030Z,15.33
2023-05-05T19:54:46.607Z,15.37
2023-05-05T19:57:19.867Z,15.36
2023-05-05T19:59:52.808Z,15.31
2023-05-05T20:02:27.045Z,15.29
2023-05-05T20:05:00.155Z,15.28
2023-05-05T20:07:33.137Z,15.26
2023-05-05T20:10:09.849Z,15.27
2023-05-05T20:12:47.861Z,15.27
2023-05-05T20:15:22.075Z,15.25
2023-05-05T20:17:55.262Z,15.26
2023-05-05T20:20:28.314Z,15.28
2023-05-05T20:23:01.265Z,15.29
2023-05-05T20:25:35.574Z,15.29
2023-05-05T20:28:08.556Z,15.29
2023-05-05T20:30:41.534Z,15.27
2023-05-05T20:33:14.553Z,15.32
2023-05-05T20:35:48.259Z,15.33
2023-05-05T20:38:21.290Z,15.37
2023-05-05T20:40:55.746Z,15.40
2023-05-05T20:43:28.718Z,15.36
2023-05-05T20:46:02.660Z,15.32
2023-05-05T20:48:36.878Z,15.26
2023-05-05T20:51:11.330Z,15.24
2023-05-05T20:53:44.295Z,15.21
2023-05-05T20:56:18.666Z,15.22
2023-05-05T20:58:51.675Z,15.23
2023-05-05T21:01:24.735Z,15.21
2023-05-05T21:03:57.910Z,15.17
2023-05-05T21:06:30.897Z,15.16
2023-05-05T21:09:03.980Z,15.25
2023-05-05T21:11:38.328Z,15.22
2023-05-05T21:14:11.369Z,15.15
2023-05-05T21:16:44.448Z,15.11
2023-05-05T21:19:17.452Z,15.05
2023-05-05T21:21:51.097Z,15.04
2023-05-05T21:24:24.079Z,15.05
2023-05-05T21:26:58.401Z,15.05
2023-05-05T21:29:34.238Z,15.09
2023-05-05T21:32:09.768Z,15.13
2023-05-05T21:34:42.768Z,15.12
2023-05-05T21:37:15.729Z,15.11
2023-05-05T21:39:49.498Z,15.13
2023-05-05T21:42:23.858Z,15.10
2023-05-05T21:44:56.914Z,15.12
2023-05-05T21:47:29.925Z,15.12
2023-05-05T21:50:03.018Z,15.09
2023-05-05T21:52:36.104Z,15.02
2023-05-05T21:55:10.950Z,15.00
2023-05-05T21:57:45.395Z,14.98
2023-05-05T22:00:18.647Z,15.01
2023-05-05T22:02:51.655Z,15.05
2023-05-05T22:05:24.701Z,15.08
2023-05-05T22:07:57.807Z,15.08
2023-05-05T22:10:30.967Z,15.11
2023-05-05T22:13:05.408Z,15.21
2023-05-05T22:15:46.649Z,15.25
2023-05-05T22:18:19.990Z,15.22
2023-05-05T22:20:53.044Z,15.15
2023-05-05T22:23:26.169Z,15.13
2023-05-05T22:25:59.154Z,15.12
2023-05-05T22:28:33.514Z,15.11
2023-05-05T22:31:06.677Z,15.13
2023-05-05T22:33:39.682Z,15.13
2023-05-05T22:36:13.114Z,15.15
2023-05-05T22:38:46.160Z,15.15
2023-05-05T22:41:19.134Z,15.14
2023-05-05T22:43:53.934Z,15.14
2023-05-05T22:46:26.916Z,15.13
2023-05-05T22:49:00.003Z,15.12
2023-05-05T22:51:33.055Z,15.12
2023-05-05T22:54:06.276Z,15.12
2023-05-05T22:56:39.573Z,15.13
2023-05-05T22:59:13.907Z,15.09
2023-05-05T23:01:47.354Z,15.03
2023-05-05T23:04:20.393Z,15.03
2023-05-05T23:06:53.351Z,15.04
2023-05-05T23:09:26.290Z,15.04
2023-05-05T23:11:59.229Z,15.06
2023-05-05T23:14:33.595Z,15.07
2023-05-05T23:17:06.894Z,15.07
2023-05-05T23:19:39.863Z,15.14
2023-05-05T23:22:12.830Z,15.13
2023-05-05T23:24:45.795Z,15.09
2023-05-05T23:27:18.744Z,15.04
2023-05-05T23:29:53.045Z,15.04
2023-05-05T23:32:26.081Z,15.02
2023-05-05T23:34:59.034Z,15.02
2023-05-05T23:37:31.988Z,14.94
2023-05-05T23:40:06.789Z,14.92
2023-05-05T23:42:39.762Z,14.92
2023-05-05T23:45:14.082Z,14.93
2023-05-05T23:47:47.051Z,14.95
2023-05-05T23:50:20.137Z,14.97
2023-05-05T23:52:53.128Z,14.96
2023-05-05T23:55:26.496Z,14.93
2023-05-05T23:57:59.448Z,14.95
